Time;durP1;ratioP1;P1;durP2;ratioP2;P2;SDS_P1;SDS_P2;PMS_P1;PMS_P2;Temp;Humidity;BMP_temperature;BMP_pressure;BME280_temperature;BME280_humidity;BME280_pressure;Samples;Min_cycle;Max_cycle;Signal;HPM_P1;HPM_P2
2022/12/31 00:01:59;;;;;;;39.00;24.20;;;;;;;3.49;88.11;100412.80;107619;1254;95006;-60
2022/12/31 00:04:38;;;;;;;42.30;25.80;;;;;;;3.45;88.50;100409.34;107577;1252;81989;-59
2022/12/31 00:07:13;;;;;;;41.50;27.80;;;;;;;3.43;88.23;100414.34;107594;1252;82461;-58
2022/12/31 00:09:53;;;;;;;39.40;25.00;;;;;;;3.39;88.19;100408.84;107470;1254;101049;-59
2022/12/31 00:12:34;;;;;;;41.70;25.20;;;;;;;3.34;88.22;100406.48;107573;1253;86938;-60
2022/12/31 00:15:14;;;;;;;40.60;26.00;;;;;;;3.33;88.09;100399.45;107570;1254;92711;-59
2022/12/31 00:17:59;;;;;;;41.20;26.30;;;;;;;3.32;88.55;100389.54;107544;1254;81288;-58
2022/12/31 00:20:39;;;;;;;42.20;25.40;;;;;;;3.33;88.67;100383.07;107570;1253;82512;-60
2022/12/31 00:23:21;;;;;;;40.00;24.90;;;;;;;3.30;88.31;100378.52;107596;1253;99612;-59
2022/12/31 00:26:05;;;;;;;40.10;25.60;;;;;;;3.29;88.61;100368.34;107553;1253;88110;-59
2022/12/31 00:28:43;;;;;;;43.30;26.80;;;;;;;3.28;88.77;100373.23;107609;1252;95700;-59
2022/12/31 00:31:28;;;;;;;44.50;26.60;;;;;;;3.27;88.63;100381.48;107608;1253;80938;-58
2022/12/31 00:34:08;;;;;;;41.10;26.40;;;;;;;3.26;88.68;100379.27;107596;1254;81100;-60
2022/12/31 00:36:44;;;;;;;39.30;25.40;;;;;;;3.27;88.88;100381.45;107640;1256;97199;-58
2022/12/31 00:39:20;;;;;;;42.30;26.80;;;;;;;3.26;88.72;100381.23;107619;1254;88385;-59
2022/12/31 00:41:57;;;;;;;42.90;27.70;;;;;;;3.24;88.83;100368.59;107628;1253;95160;-58
2022/12/31 00:44:38;;;;;;;43.80;27.60;;;;;;;3.23;88.73;100370.81;107605;1254;80601;-58
2022/12/31 00:47:18;;;;;;;42.50;27.40;;;;;;;3.22;88.85;100364.48;107607;1253;81947;-59
2022/12/31 00:49:55;;;;;;;45.00;26.60;;;;;;;3.23;88.71;100366.23;107600;1253;98408;-58
2022/12/31 00:52:34;;;;;;;43.20;26.70;;;;;;;3.21;88.65;100359.08;107603;1253;86003;-58
2022/12/31 00:55:13;;;;;;;43.10;27.30;;;;;;;3.20;89.08;100357.73;107552;1253;94644;-57
2022/12/31 00:57:59;;;;;;;41.40;26.80;;;;;;;3.25;88.95;100357.11;107599;1253;79088;-59
2022/12/31 01:00:42;;;;;;;39.60;24.90;;;;;;;3.29;89.09;100355.09;107601;1254;82959;-59
2022/12/31 01:03:23;;;;;;;37.00;24.80;;;;;;;3.36;89.16;100349.30;107539;1254;99044;-59
2022/12/31 01:06:00;;;;;;;44.60;26.00;;;;;;;3.38;89.09;100338.40;107565;1254;88568;-59
2022/12/31 01:08:43;;;;;;;41.60;25.90;;;;;;;3.40;89.10;100326.17;107568;1253;94012;-58
2022/12/31 01:11:27;;;;;;;40.50;26.20;;;;;;;3.40;89.31;100325.08;107592;1253;81371;-59
2022/12/31 01:14:08;;;;;;;40.10;24.20;;;;;;;3.36;88.82;100318.68;107616;1254;83501;-60
2022/12/31 01:16:52;;;;;;;43.10;25.70;;;;;;;3.34;88.88;100317.11;107640;1253;99885;-59
2022/12/31 01:19:31;;;;;;;37.80;24.30;;;;;;;3.37;89.14;100315.36;107646;1253;89106;-59
2022/12/31 01:22:09;;;;;;;37.60;23.80;;;;;;;3.41;89.00;100312.88;107672;1257;95365;-60
2022/12/31 01:24:50;;;;;;;37.90;23.60;;;;;;;3.46;88.79;100310.23;107634;1254;82280;-60
2022/12/31 01:27:27;;;;;;;34.50;22.50;;;;;;;3.47;88.77;100308.38;107643;1253;82425;-59
2022/12/31 01:30:04;;;;;;;35.00;21.90;;;;;;;3.49;88.80;100309.95;107649;1253;97104;-58
2022/12/31 01:32:47;;;;;;;32.80;21.70;;;;;;;3.48;88.69;100308.78;107600;1253;88565;-59
2022/12/31 01:35:28;;;;;;;35.80;21.50;;;;;;;3.49;88.71;100306.86;107617;1256;94354;-58
2022/12/31 01:38:05;;;;;;;33.90;21.30;;;;;;;3.54;88.69;100304.79;107558;1253;80299;-58
2022/12/31 01:40:45;;;;;;;33.40;21.90;;;;;;;3.59;88.62;100301.90;107555;1257;81380;-59
2022/12/31 01:43:25;;;;;;;32.40;20.40;;;;;;;3.67;88.65;100303.97;107568;1253;99750;-59
2022/12/31 01:46:08;;;;;;;34.80;21.90;;;;;;;3.70;88.75;100296.38;107536;1254;89074;-59
2022/12/31 01:48:56;;;;;;;31.50;21.60;;;;;;;3.73;88.57;100286.06;107582;1254;94880;-60
2022/12/31 01:51:35;;;;;;;34.20;20.60;;;;;;;3.78;88.62;100282.74;107456;1254;81142;-58
2022/12/31 01:54:13;;;;;;;35.50;21.80;;;;;;;3.79;88.44;100283.33;107547;1253;84005;-59
2022/12/31 01:56:53;;;;;;;32.30;20.30;;;;;;;3.83;88.46;100279.23;107614;1253;97631;-58
2022/12/31 01:59:34;;;;;;;31.40;20.50;;;;;;;3.85;88.38;100273.98;107587;1254;89418;-59
2022/12/31 02:02:09;;;;;;;32.40;20.90;;;;;;;3.90;88.43;100269.56;107628;1253;95566;-58
2022/12/31 02:04:52;;;;;;;30.10;19.10;;;;;;;3.97;88.28;100260.58;107505;1253;80326;-59
2022/12/31 02:07:29;;;;;;;32.90;20.00;;;;;;;4.00;88.36;100255.98;107605;1253;81072;-59
2022/12/31 02:10:07;;;;;;;31.90;19.20;;;;;;;4.05;88.16;100262.71;107618;1253;100113;-59
2022/12/31 02:12:43;;;;;;;28.60;18.90;;;;;;;4.09;88.13;100256.81;107674;1253;88027;-59
2022/12/31 02:15:25;;;;;;;29.70;18.90;;;;;;;4.09;87.92;100250.42;107686;1253;95322;-58
2022/12/31 02:18:12;;;;;;;28.60;18.60;;;;;;;4.11;87.90;100259.09;107597;1253;80286;-59
2022/12/31 02:21:45;;;;;;;32.30;19.50;;;;;;;4.15;87.86;100245.67;107633;1253;83399;-59
2022/12/31 02:25:09;;;;;;;30.10;18.20;;;;;;;4.19;87.79;100233.61;107607;1256;97963;-59
2022/12/31 02:28:06;;;;;;;21.00;13.90;;;;;;;4.22;87.76;100212.46;107409;1256;89123;-58
2022/12/31 02:30:52;;;;;;;29.20;18.90;;;;;;;4.22;87.65;100217.23;107550;1257;95425;-58
2022/12/31 02:33:36;;;;;;;29.40;18.50;;;;;;;4.25;87.40;100221.75;107568;1253;79703;-59
2022/12/31 02:36:18;;;;;;;27.20;17.60;;;;;;;4.27;87.44;100213.51;107584;1253;81611;-59
2022/12/31 02:39:02;;;;;;;29.80;18.00;;;;;;;4.30;87.26;100207.54;107562;1253;98524;-59
2022/12/31 02:41:52;;;;;;;29.50;18.80;;;;;;;4.27;87.23;100207.09;107598;1253;88435;-59
2022/12/31 02:44:37;;;;;;;26.60;17.40;;;;;;;4.27;87.27;100207.85;107560;1253;95380;-58
2022/12/31 02:47:31;;;;;;;27.10;17.80;;;;;;;4.22;87.21;100222.23;107599;1253;80238;-59
2022/12/31 02:50:32;;;;;;;27.80;18.10;;;;;;;4.20;87.15;100225.47;107476;1255;80945;-57
2022/12/31 02:53:25;;;;;;;28.60;18.30;;;;;;;4.22;87.19;100237.98;107639;1253;98678;-59
2022/12/31 02:56:09;;;;;;;27.60;17.10;;;;;;;4.25;87.05;100229.09;107500;1253;87668;-59
2022/12/31 03:02:14;;;;;;;27.10;17.10;;;;;;;4.34;87.05;100210.16;107610;1253;79944;-58
2022/12/31 03:04:54;;;;;;;25.60;16.90;;;;;;;4.39;87.03;100211.27;107568;1253;83183;-58
2022/12/31 03:07:35;;;;;;;22.90;14.90;;;;;;;4.41;86.84;100226.56;107567;1253;99812;-58
2022/12/31 03:10:13;;;;;;;24.10;16.40;;;;;;;4.42;86.81;100231.41;107547;1253;88843;-60
2022/12/31 03:12:54;;;;;;;24.60;15.40;;;;;;;4.47;86.68;100231.59;107589;1253;95715;-58
2022/12/31 03:15:34;;;;;;;23.70;16.20;;;;;;;4.54;86.76;100235.52;107568;1253;78279;-59
2022/12/31 03:18:16;;;;;;;23.00;15.10;;;;;;;4.56;86.63;100235.38;107597;1253;81987;-60
2022/12/31 03:26:46;;;;;;;23.20;15.90;;;;;;;4.56;86.49;100224.69;107112;1257;95823;-59
2022/12/31 03:29:31;;;;;;;24.50;15.20;;;;;;;4.58;86.38;100222.99;107545;1254;77989;-59
2022/12/31 03:32:14;;;;;;;23.40;15.10;;;;;;;4.61;86.37;100224.42;107593;1253;83458;-57
2022/12/31 03:34:57;;;;;;;22.60;15.30;;;;;;;4.66;86.44;100228.58;107593;1253;97697;-58
2022/12/31 03:37:39;;;;;;;22.70;15.00;;;;;;;4.70;86.58;100232.95;107581;1254;87712;-59
2022/12/31 03:40:33;;;;;;;19.90;13.80;;;;;;;4.76;86.32;100241.16;107610;1253;94433;-60
2022/12/31 03:43:13;;;;;;;21.60;13.30;;;;;;;4.82;86.37;100246.26;107606;1253;81830;-58
2022/12/31 03:45:52;;;;;;;21.00;14.10;;;;;;;4.86;86.26;100246.33;107610;1253;82109;-59
2022/12/31 03:48:35;;;;;;;21.10;14.20;;;;;;;4.93;86.43;100242.77;107551;1253;99208;-59
2022/12/31 03:51:16;;;;;;;21.10;14.10;;;;;;;4.98;86.26;100239.41;107588;1253;89357;-60
2022/12/31 03:54:01;;;;;;;20.70;13.60;;;;;;;5.04;86.23;100233.25;107561;1253;94974;-59
2022/12/31 03:56:43;;;;;;;21.30;13.40;;;;;;;5.05;86.15;100227.91;107550;1253;77353;-58
2022/12/31 03:59:30;;;;;;;18.80;12.60;;;;;;;5.09;86.08;100232.54;107568;1254;81964;-58
2022/12/31 04:02:08;;;;;;;21.20;12.70;;;;;;;5.13;86.02;100235.09;107552;1253;99403;-59
2022/12/31 04:04:50;;;;;;;19.60;12.60;;;;;;;5.17;86.08;100240.42;107570;1254;88141;-59
2022/12/31 04:07:30;;;;;;;19.40;12.60;;;;;;;5.22;86.11;100240.29;107597;1253;94624;-58
2022/12/31 04:10:15;;;;;;;17.80;12.20;;;;;;;5.27;86.03;100243.09;107540;1253;81326;-59
2022/12/31 04:12:56;;;;;;;19.30;11.90;;;;;;;5.33;86.12;100242.45;107603;1253;80865;-59
2022/12/31 04:15:43;;;;;;;19.40;12.70;;;;;;;5.43;86.01;100246.14;107565;1256;100324;-60
2022/12/31 04:18:24;;;;;;;18.30;12.60;;;;;;;5.50;86.03;100244.44;107600;1253;88408;-59
2022/12/31 04:21:03;;;;;;;19.20;11.90;;;;;;;5.54;85.89;100233.52;107594;1253;94093;-60
2022/12/31 04:23:45;;;;;;;19.70;13.30;;;;;;;5.62;85.83;100226.74;107597;1253;80067;-59
2022/12/31 04:26:24;;;;;;;19.60;13.20;;;;;;;5.69;85.88;100220.14;107621;1253;81550;-58
2022/12/31 04:29:00;;;;;;;18.00;11.80;;;;;;;5.72;85.70;100220.34;107661;1253;99027;-59
2022/12/31 04:31:38;;;;;;;18.60;13.10;;;;;;;5.74;85.53;100221.39;107699;1254;87975;-60
2022/12/31 04:34:19;;;;;;;19.40;12.00;;;;;;;5.77;85.44;100213.35;107626;1253;95779;-60
2022/12/31 04:37:01;;;;;;;22.00;13.00;;;;;;;5.79;85.52;100208.14;107545;1253;81105;-58
2022/12/31 04:39:45;;;;;;;19.00;12.30;;;;;;;5.82;85.58;100208.35;107590;1253;82073;-58
2022/12/31 04:42:25;;;;;;;18.90;13.00;;;;;;;5.87;85.49;100210.52;107566;1253;99653;-59
2022/12/31 04:45:07;;;;;;;18.70;12.00;;;;;;;5.91;85.49;100213.27;107582;1254;89572;-58
2022/12/31 04:47:47;;;;;;;18.60;12.90;;;;;;;5.95;85.35;100217.32;107562;1253;93979;-58
2022/12/31 04:50:23;;;;;;;18.90;13.60;;;;;;;6.00;85.47;100218.39;107545;1253;80299;-58
2022/12/31 04:53:00;;;;;;;17.40;12.70;;;;;;;6.02;85.44;100211.08;107589;1252;81638;-61
2022/12/31 04:55:41;;;;;;;20.00;13.30;;;;;;;6.06;85.31;100217.62;107595;1253;100447;-60
2022/12/31 04:58:19;;;;;;;18.50;12.50;;;;;;;6.08;85.31;100217.52;107624;1253;88519;-59
2022/12/31 05:00:59;;;;;;;16.70;12.20;;;;;;;6.10;85.29;100228.46;107571;1253;93618;-60
2022/12/31 05:03:40;;;;;;;19.20;12.90;;;;;;;6.12;85.18;100226.59;107602;1253;80028;-59
2022/12/31 05:06:19;;;;;;;19.10;12.60;;;;;;;6.15;85.24;100230.67;107578;1253;83192;-60
2022/12/31 05:08:57;;;;;;;18.90;12.30;;;;;;;6.20;85.13;100227.60;107586;1253;99005;-59
2022/12/31 05:11:32;;;;;;;22.60;13.80;;;;;;;6.28;85.01;100225.13;107622;1253;88984;-57
2022/12/31 05:14:11;;;;;;;18.00;12.30;;;;;;;6.34;84.96;100219.80;107633;1253;95571;-60
2022/12/31 05:16:53;;;;;;;20.50;13.60;;;;;;;6.38;84.95;100208.30;107615;1253;82366;-58
2022/12/31 05:19:33;;;;;;;19.10;13.80;;;;;;;6.45;84.91;100211.15;107604;1253;81863;-57
2022/12/31 05:22:33;;;;;;;21.00;13.40;;;;;;;6.51;84.71;100216.90;107590;1253;99151;-58
2022/12/31 05:25:14;;;;;;;23.00;12.90;;;;;;;6.57;84.63;100220.57;107541;1253;87952;-59
2022/12/31 05:27:58;;;;;;;18.30;13.10;;;;;;;6.56;84.58;100222.10;107573;1256;93054;-58
2022/12/31 05:30:41;;;;;;;20.40;13.30;;;;;;;6.56;84.50;100229.67;107556;1253;82299;-59
2022/12/31 05:33:24;;;;;;;20.90;13.70;;;;;;;6.56;84.54;100227.70;107569;1253;83805;-60
2022/12/31 05:36:07;;;;;;;18.10;12.30;;;;;;;6.57;84.55;100230.08;107590;1253;98207;-62
2022/12/31 05:38:42;;;;;;;22.10;13.00;;;;;;;6.60;84.67;100222.35;107587;1253;89325;-59
2022/12/31 05:41:20;;;;;;;21.60;13.30;;;;;;;6.64;84.58;100219.10;107531;1253;94817;-58
2022/12/31 05:43:55;;;;;;;20.00;13.30;;;;;;;6.69;84.68;100223.16;107573;1253;77826;-58
2022/12/31 05:46:33;;;;;;;20.40;12.90;;;;;;;6.74;84.44;100227.98;107607;1253;83101;-58
2022/12/31 05:49:14;;;;;;;21.90;13.70;;;;;;;6.76;84.57;100223.59;107583;1253;97071;-60
2022/12/31 05:51:53;;;;;;;20.70;14.60;;;;;;;6.76;84.45;100216.27;107598;1254;88133;-60
2022/12/31 05:54:35;;;;;;;21.00;13.30;;;;;;;6.78;84.45;100211.81;107664;1253;94204;-61
2022/12/31 05:57:22;;;;;;;21.40;13.30;;;;;;;6.78;84.43;100208.73;107638;1252;80221;-60
2022/12/31 06:00:02;;;;;;;18.70;13.10;;;;;;;6.81;84.48;100207.07;107631;1252;83235;-59
2022/12/31 06:02:39;;;;;;;19.70;12.60;;;;;;;6.84;84.55;100207.67;107616;1253;99965;-59
2022/12/31 06:05:23;;;;;;;19.50;12.50;;;;;;;6.89;84.50;100205.94;107599;1253;87694;-59
2022/12/31 06:08:08;;;;;;;18.10;12.40;;;;;;;6.95;84.66;100211.15;107556;1253;93290;-59
2022/12/31 06:10:50;;;;;;;17.80;11.90;;;;;;;6.98;84.64;100207.38;107622;1253;80683;-58
2022/12/31 06:13:33;;;;;;;20.00;13.10;;;;;;;6.99;84.79;100209.93;107507;1253;81907;-58
2022/12/31 06:16:15;;;;;;;18.60;12.30;;;;;;;7.02;84.70;100215.09;107454;1253;99032;-60
2022/12/31 06:18:55;;;;;;;17.50;12.40;;;;;;;7.04;84.81;100210.42;107492;1253;89169;-60
2022/12/31 06:21:33;;;;;;;16.00;11.70;;;;;;;7.08;84.89;100206.23;107603;1253;95469;-59
2022/12/31 06:24:11;;;;;;;18.40;11.90;;;;;;;7.12;84.91;100210.07;107556;1253;82475;-59
2022/12/31 06:26:59;;;;;;;20.50;11.10;;;;;;;7.16;85.14;100209.26;107593;1253;81161;-59
2022/12/31 06:29:37;;;;;;;16.50;10.80;;;;;;;7.19;85.29;100214.70;107563;1253;99066;-60
2022/12/31 06:32:17;;;;;;;18.40;11.80;;;;;;;7.25;85.28;100213.26;107509;1253;89178;-60
2022/12/31 06:34:51;;;;;;;16.30;11.50;;;;;;;7.31;85.34;100218.45;107229;1256;481901;-59
2022/12/31 06:37:31;;;;;;;16.60;10.90;;;;;;;7.35;85.40;100224.11;107561;1256;81443;-59
2022/12/31 06:40:13;;;;;;;18.10;11.60;;;;;;;7.40;85.39;100228.56;107599;1253;83015;-58
2022/12/31 06:42:49;;;;;;;24.00;11.20;;;;;;;7.44;85.40;100229.92;107590;1253;97235;-59
2022/12/31 06:45:24;;;;;;;16.80;11.10;;;;;;;7.44;85.47;100223.28;107610;1254;88921;-58
2022/12/31 06:48:04;;;;;;;17.50;12.00;;;;;;;7.47;85.41;100219.87;107531;1253;95449;-59
2022/12/31 06:50:43;;;;;;;18.30;11.30;;;;;;;7.51;85.37;100217.80;107574;1253;80159;-59
2022/12/31 06:53:27;;;;;;;17.20;11.70;;;;;;;7.49;85.40;100219.25;107589;1253;81975;-60
2022/12/31 06:56:21;;;;;;;21.00;12.00;;;;;;;7.50;85.42;100223.48;107541;1253;99381;-59
2022/12/31 06:59:07;;;;;;;15.20;10.40;;;;;;;7.53;85.32;100229.05;107537;1256;87313;-58
2022/12/31 07:02:00;;;;;;;17.70;11.30;;;;;;;7.54;85.37;100229.66;107545;1253;94872;-59
2022/12/31 07:05:18;;;;;;;17.10;10.90;;;;;;;7.55;85.48;100233.27;107553;1253;82273;-59
2022/12/31 07:08:19;;;;;;;14.80;10.90;;;;;;;7.61;85.50;100235.80;107555;1253;80332;-58
2022/12/31 07:11:07;;;;;;;16.40;10.60;;;;;;;7.64;85.38;100240.06;107571;1253;99434;-59
2022/12/31 07:14:11;;;;;;;13.80;10.10;;;;;;;7.65;85.41;100249.90;107542;1253;89061;-59
2022/12/31 07:17:06;;;;;;;15.00;10.60;;;;;;;7.71;85.41;100257.58;107585;1255;95093;-58
2022/12/31 07:19:51;;;;;;;15.90;10.60;;;;;;;7.80;85.38;100266.61;107507;1253;81057;-59
2022/12/31 07:22:33;;;;;;;13.70;9.70;;;;;;;7.83;85.29;100268.08;107570;1256;80566;-59
2022/12/31 07:25:13;;;;;;;16.20;11.00;;;;;;;7.83;85.20;100266.80;107634;1253;98986;-59
2022/12/31 07:28:07;;;;;;;14.50;10.30;;;;;;;7.84;85.16;100262.77;107611;1253;87867;-60
2022/12/31 07:30:55;;;;;;;14.00;10.20;;;;;;;7.83;85.10;100270.63;107533;1253;94714;-59
2022/12/31 07:33:52;;;;;;;16.60;10.60;;;;;;;7.83;85.14;100274.77;107568;1253;79726;-60
2022/12/31 07:37:02;;;;;;;14.30;9.00;;;;;;;7.81;85.23;100277.98;107605;1253;81969;-60
2022/12/31 07:39:47;;;;;;;13.60;9.60;;;;;;;7.84;85.30;100288.71;107604;1253;99007;-59
2022/12/31 07:42:28;;;;;;;15.80;10.10;;;;;;;7.90;85.28;100286.13;107637;1253;87821;-58
2022/12/31 07:45:20;;;;;;;14.80;10.20;;;;;;;7.94;85.31;100285.23;107558;1253;94220;-57
2022/12/31 07:47:57;;;;;;;14.30;9.80;;;;;;;8.00;85.23;100283.00;107577;1253;81365;-59
2022/12/31 07:50:39;;;;;;;15.00;9.30;;;;;;;8.04;85.19;100279.23;107596;1253;81540;-60
2022/12/31 07:53:15;;;;;;;15.60;10.00;;;;;;;8.11;85.14;100276.78;107606;1253;99621;-59
2022/12/31 07:55:57;;;;;;;14.00;9.70;;;;;;;8.16;85.02;100272.44;107596;1253;87298;-59
2022/12/31 07:58:48;;;;;;;13.90;9.50;;;;;;;8.20;84.96;100271.92;107562;1254;93942;-59
2022/12/31 08:01:40;;;;;;;12.90;9.00;;;;;;;8.25;84.95;100271.09;107480;1253;80266;-59
2022/12/31 08:04:27;;;;;;;14.40;9.20;;;;;;;8.29;84.81;100275.86;107591;1253;82132;-58
2022/12/31 08:07:20;;;;;;;13.50;8.80;;;;;;;8.36;84.76;100278.08;107480;1252;96700;-59
2022/12/31 08:10:07;;;;;;;12.40;8.80;;;;;;;8.44;84.63;100283.82;107587;1253;87704;-59
2022/12/31 08:12:54;;;;;;;14.00;8.90;;;;;;;8.50;84.66;100286.27;107579;1253;93809;-59
2022/12/31 08:15:37;;;;;;;12.60;8.90;;;;;;;8.59;84.56;100287.52;107594;1256;80741;-59
2022/12/31 08:18:14;;;;;;;12.90;8.80;;;;;;;8.67;84.37;100286.08;107587;1253;82595;-58
2022/12/31 08:20:59;;;;;;;12.30;9.30;;;;;;;8.70;84.21;100285.15;107590;1252;98708;-59
2022/12/31 08:23:50;;;;;;;13.40;9.60;;;;;;;8.68;84.18;100280.01;107633;1256;87650;-58
2022/12/31 08:26:37;;;;;;;13.30;8.30;;;;;;;8.66;83.97;100284.73;107616;1253;93743;-59
2022/12/31 08:29:38;;;;;;;12.60;8.50;;;;;;;8.64;84.04;100280.42;107589;1254;79521;-59
2022/12/31 08:32:27;;;;;;;12.40;8.80;;;;;;;8.69;83.99;100285.55;107605;1256;82484;-60
2022/12/31 08:35:26;;;;;;;10.30;7.70;;;;;;;8.79;83.94;100291.90;107551;1253;98980;-58
2022/12/31 08:38:20;;;;;;;11.70;7.90;;;;;;;8.82;84.02;100302.39;107552;1253;89274;-59
2022/12/31 08:41:05;;;;;;;10.20;8.00;;;;;;;8.87;83.96;100305.20;107505;1254;96715;-60
2022/12/31 08:43:55;;;;;;;10.50;7.70;;;;;;;8.94;83.83;100302.88;107559;1253;80669;-59
2022/12/31 08:46:39;;;;;;;11.40;7.30;;;;;;;8.95;83.86;100308.29;107490;1253;82177;-60
2022/12/31 08:49:17;;;;;;;8.90;7.10;;;;;;;9.01;83.65;100307.22;107571;1253;99420;-59
2022/12/31 08:51:55;;;;;;;8.70;7.20;;;;;;;9.05;83.64;100312.27;107579;1253;87549;-59
2022/12/31 08:54:31;;;;;;;11.90;8.10;;;;;;;9.09;83.64;100316.07;107545;1256;93576;-60
2022/12/31 08:57:22;;;;;;;11.80;8.00;;;;;;;9.14;83.60;100313.36;107564;1256;80849;-60
2022/12/31 09:00:10;;;;;;;9.60;6.80;;;;;;;9.24;83.55;100309.58;107619;1256;81635;-59
2022/12/31 09:03:08;;;;;;;11.30;7.30;;;;;;;9.30;83.37;100309.71;107603;1253;99289;-58
2022/12/31 09:06:06;;;;;;;11.30;8.30;;;;;;;9.35;83.35;100307.09;107564;1256;88708;-59
2022/12/31 09:08:57;;;;;;;11.20;7.60;;;;;;;9.38;83.16;100307.26;107620;1252;95583;-58
2022/12/31 09:11:52;;;;;;;13.80;7.70;;;;;;;9.41;83.04;100299.46;107523;1253;81367;-58
2022/12/31 09:14:51;;;;;;;10.60;7.00;;;;;;;9.45;82.87;100297.90;107563;1253;82181;-60
2022/12/31 09:17:45;;;;;;;10.70;7.00;;;;;;;9.52;82.76;100294.94;107489;1253;98988;-59
2022/12/31 09:20:32;;;;;;;12.20;8.30;;;;;;;9.54;82.72;100286.67;107632;1253;88933;-58
2022/12/31 09:23:08;;;;;;;9.30;6.80;;;;;;;9.61;82.57;100280.59;107560;1253;94211;-59
2022/12/31 09:25:54;;;;;;;15.10;7.60;;;;;;;9.69;82.60;100281.08;107581;1256;80124;-59
2022/12/31 09:28:49;;;;;;;8.50;6.60;;;;;;;9.78;82.57;100274.39;107566;1254;83193;-59
2022/12/31 09:31:40;;;;;;;9.00;6.30;;;;;;;9.81;82.14;100263.03;107575;1253;99332;-60
2022/12/31 09:34:30;;;;;;;11.20;7.20;;;;;;;9.89;82.41;100250.65;107565;1253;86227;-59
2022/12/31 09:37:16;;;;;;;10.80;6.90;;;;;;;9.99;82.27;100249.69;107519;1253;94183;-60
2022/12/31 09:39:51;;;;;;;9.60;6.80;;;;;;;10.11;82.10;100253.73;107526;1253;82187;-60
2022/12/31 09:43:11;;;;;;;8.50;6.00;;;;;;;10.30;81.90;100256.02;107585;1256;82339;-59
2022/12/31 09:46:12;;;;;;;10.50;6.80;;;;;;;10.43;81.77;100261.92;107525;1253;98340;-59
2022/12/31 09:49:20;;;;;;;8.70;6.20;;;;;;;10.51;81.53;100256.66;107570;1256;88577;-59
2022/12/31 09:52:11;;;;;;;9.30;6.40;;;;;;;10.42;81.37;100263.95;107537;1253;95365;-61
2022/12/31 09:55:03;;;;;;;9.00;6.20;;;;;;;10.44;81.35;100263.59;107539;1253;80587;-61
2022/12/31 09:58:06;;;;;;;9.50;6.10;;;;;;;10.54;80.99;100251.95;107589;1253;81563;-60
2022/12/31 10:00:52;;;;;;;10.50;6.30;;;;;;;10.57;80.96;100254.80;107606;1253;98716;-60
2022/12/31 10:04:05;;;;;;;9.50;6.00;;;;;;;10.57;80.95;100246.34;107619;1253;87563;-61
2022/12/31 10:06:57;;;;;;;8.10;6.00;;;;;;;10.54;80.82;100240.02;107611;1254;95481;-60
2022/12/31 10:10:00;;;;;;;8.30;5.90;;;;;;;10.55;80.68;100240.41;107563;1256;79327;-60
2022/12/31 10:13:33;;;;;;;8.10;6.00;;;;;;;10.63;80.85;100239.77;107558;1256;83138;-60
2022/12/31 10:16:39;;;;;;;8.00;6.00;;;;;;;11.16;80.93;100233.16;107276;1256;99056;-59
2022/12/31 10:19:51;;;;;;;7.60;5.90;;;;;;;11.40;80.63;100234.48;107572;1253;89264;-60
2022/12/31 10:23:03;;;;;;;8.40;5.80;;;;;;;11.76;79.92;100237.25;107338;1253;94056;-61
2022/12/31 10:26:10;;;;;;;7.00;5.30;;;;;;;11.86;79.54;100227.23;107456;1253;82467;-61
2022/12/31 10:29:02;;;;;;;8.20;5.50;;;;;;;11.87;79.13;100218.17;107572;1253;82438;-60
2022/12/31 10:31:59;;;;;;;6.60;5.20;;;;;;;11.87;78.88;100222.44;107573;1253;97920;-60
2022/12/31 10:34:56;;;;;;;7.40;4.90;;;;;;;11.95;78.73;100225.63;107520;1254;87889;-61
2022/12/31 10:37:49;;;;;;;7.60;5.20;;;;;;;11.97;78.35;100224.61;107567;1256;94728;-59
2022/12/31 10:40:47;;;;;;;7.10;5.20;;;;;;;11.99;78.51;100217.48;107599;1253;80641;-59
2022/12/31 10:44:09;;;;;;;6.80;5.20;;;;;;;12.00;78.07;100203.73;107585;1253;82726;-61
2022/12/31 10:47:14;;;;;;;5.90;4.80;;;;;;;11.87;77.82;100192.69;107590;1253;98087;-58
2022/12/31 10:50:29;;;;;;;7.30;5.10;;;;;;;11.79;78.19;100194.67;107609;1253;89320;-61
2022/12/31 10:53:56;;;;;;;6.60;5.30;;;;;;;11.75;78.21;100191.69;107365;1257;95423;-59
2022/12/31 10:57:17;;;;;;;9.10;5.60;;;;;;;11.66;77.85;100171.56;107605;1253;81983;-59
2022/12/31 11:00:15;;;;;;;7.00;5.20;;;;;;;11.72;78.33;100175.16;107525;1253;83123;-60
2022/12/31 11:04:07;;;;;;;7.70;4.90;;;;;;;11.73;78.23;100176.37;107621;1256;98448;-60
2022/12/31 11:07:54;;;;;;;6.50;4.70;;;;;;;11.80;78.13;100163.45;107046;1259;87446;-61
2022/12/31 11:10:58;;;;;;;5.90;4.40;;;;;;;11.83;78.04;100152.01;107064;1253;94369;-59
2022/12/31 11:14:29;;;;;;;7.10;4.40;;;;;;;11.84;78.31;100148.64;107547;1253;80047;-59
2022/12/31 11:17:46;;;;;;;9.20;5.40;;;;;;;11.87;78.00;100155.02;107549;1253;82224;-63
2022/12/31 11:21:11;;;;;;;5.20;4.20;;;;;;;11.90;77.99;100147.65;107600;1253;97142;-64
2022/12/31 11:24:04;;;;;;;9.10;4.80;;;;;;;11.92;78.09;100148.73;107576;1256;86605;-62
2022/12/31 11:27:07;;;;;;;9.30;4.60;;;;;;;11.95;78.08;100157.28;107584;1254;92834;-66
2022/12/31 11:30:20;;;;;;;8.60;4.40;;;;;;;11.89;78.14;100168.64;107585;1256;79185;-63
2022/12/31 11:33:18;;;;;;;6.40;4.90;;;;;;;11.83;78.11;100156.37;107618;1256;81680;-57
2022/12/31 11:36:18;;;;;;;7.50;4.90;;;;;;;11.74;78.27;100151.02;107609;1253;98794;-65
2022/12/31 11:39:15;;;;;;;6.00;4.30;;;;;;;11.74;78.17;100152.81;107596;1253;88472;-57
2022/12/31 11:42:00;;;;;;;7.50;4.70;;;;;;;11.76;78.22;100144.61;107583;1254;95757;-59
2022/12/31 11:44:48;;;;;;;6.40;4.40;;;;;;;11.78;78.27;100142.54;107543;1253;80899;-57
2022/12/31 11:47:51;;;;;;;6.00;4.70;;;;;;;11.86;78.43;100142.58;107589;1253;82669;-58
2022/12/31 11:50:47;;;;;;;6.90;4.20;;;;;;;12.00;78.30;100142.47;107562;1254;99250;-59
2022/12/31 11:53:48;;;;;;;6.50;4.80;;;;;;;12.03;78.24;100152.73;107569;1256;87680;-58
2022/12/31 11:56:36;;;;;;;6.10;4.50;;;;;;;12.04;78.05;100144.64;107554;1256;94985;-57
2022/12/31 11:59:23;;;;;;;6.00;4.20;;;;;;;12.08;77.89;100136.87;107558;1254;83430;-57
2022/12/31 12:02:11;;;;;;;7.40;4.10;;;;;;;12.08;78.07;100123.84;107611;1253;81987;-57
2022/12/31 12:05:07;;;;;;;5.80;4.20;;;;;;;12.07;77.92;100131.49;107555;1253;98494;-56
2022/12/31 12:07:45;;;;;;;5.20;3.90;;;;;;;12.09;78.19;100139.16;107577;1253;89017;-57
2022/12/31 12:10:29;;;;;;;5.50;4.00;;;;;;;12.12;78.21;100132.00;107582;1253;94944;-57
2022/12/31 12:13:14;;;;;;;5.00;3.90;;;;;;;12.13;78.04;100124.79;107577;1253;79636;-58
2022/12/31 12:15:54;;;;;;;5.50;3.70;;;;;;;12.21;78.29;100124.27;107645;1253;83450;-57
2022/12/31 12:18:42;;;;;;;5.10;3.50;;;;;;;12.27;78.36;100131.77;107464;1254;101588;-57
2022/12/31 12:21:24;;;;;;;6.70;3.50;;;;;;;12.27;77.99;100118.68;107591;1254;88297;-58
2022/12/31 12:24:18;;;;;;;4.80;3.20;;;;;;;12.26;78.30;100129.94;107502;1253;93916;-57
2022/12/31 12:26:56;;;;;;;5.30;3.60;;;;;;;12.24;78.21;100136.81;107589;1253;82614;-57
2022/12/31 12:29:42;;;;;;;5.70;3.60;;;;;;;12.23;78.45;100135.22;107592;1256;83459;-57
2022/12/31 12:32:24;;;;;;;6.60;4.10;;;;;;;12.13;79.26;100128.00;107565;1253;98868;-57
2022/12/31 12:35:04;;;;;;;4.60;3.50;;;;;;;12.08;79.90;100117.98;107535;1253;89535;-58
2022/12/31 12:37:39;;;;;;;5.60;3.80;;;;;;;11.99;80.39;100116.77;107520;1253;95218;-58
2022/12/31 12:40:30;;;;;;;4.50;3.60;;;;;;;11.98;80.73;100110.85;107556;1253;82665;-58
2022/12/31 12:43:27;;;;;;;6.20;4.10;;;;;;;11.95;80.99;100114.98;107577;1253;82391;-56
2022/12/31 12:46:05;;;;;;;5.50;4.10;;;;;;;11.93;81.23;100111.92;107582;1254;98740;-56
2022/12/31 12:48:43;;;;;;;5.80;3.80;;;;;;;11.95;81.27;100108.73;107562;1254;87610;-57
2022/12/31 12:51:36;;;;;;;6.80;4.80;;;;;;;12.01;81.32;100103.73;107579;1253;95352;-57
2022/12/31 12:54:24;;;;;;;9.90;7.90;;;;;;;11.99;81.50;100094.45;107599;1253;79107;-56